Time;durP1;ratioP1;P1;durP2;ratioP2;P2;SDS_P1;SDS_P2;PMS_P1;PMS_P2;Temp;Humidity;BMP_temperature;BMP_pressure;BME280_temperature;BME280_humidity;BME280_pressure;Samples;Min_cycle;Max_cycle;Signal;HPM_P1;HPM_P2
2023/01/27 00:00:10;;;;;;;;;;;;;;;20.40;35.28;100611.05;105424;1288;61291;-84
2023/01/27 00:02:36;;;;;;;;;;;;;;;20.40;35.36;100599.79;105458;1288;61164;-84
2023/01/27 00:05:03;;;;;;;;;;;;;;;20.39;35.21;100607.48;105599;1288;61430;-84
2023/01/27 00:07:29;;;;;;;;;;;;;;;20.40;35.31;100608.00;105465;1293;61272;-84
2023/01/27 00:09:55;;;;;;;;;;;;;;;20.40;35.34;100607.42;105470;1288;61242;-84
2023/01/27 00:15:06;;;;;;;;;;;;;;;20.41;35.38;100601.85;105479;1288;72532;-84
2023/01/27 00:17:32;;;;;;;;;;;;;;;20.41;35.28;100607.37;105549;1288;61340;-84
2023/01/27 00:19:57;;;;;;;;;;;;;;;20.42;35.38;100606.25;105466;1288;61293;-84
2023/01/27 00:25:07;;;;;;;;;;;;;;;20.41;35.32;100610.02;105591;1288;71867;-84
2023/01/27 00:27:33;;;;;;;;;;;;;;;20.42;35.27;100609.10;105439;1288;61410;-84
2023/01/27 00:29:58;;;;;;;;;;;;;;;20.42;35.27;100611.41;105481;1288;61422;-82
2023/01/27 00:35:08;;;;;;;;;;;;;;;20.43;35.24;100603.52;106127;1282;72531;-82
2023/01/27 00:37:33;;;;;;;;;;;;;;;20.44;35.28;100615.41;106101;1282;61365;-82
2023/01/27 00:40:01;;;;;;;;;;;;;;;20.43;35.18;100617.27;106087;1282;59997;-83
2023/01/27 00:42:26;;;;;;;;;;;;;;;20.44;35.39;100617.20;106108;1285;61271;-83
2023/01/27 00:47:37;;;;;;;;;;;;;;;20.43;35.32;100615.61;106122;1282;75509;-83
2023/01/27 00:50:02;;;;;;;;;;;;;;;20.45;35.22;100615.89;106234;1282;61261;-83
2023/01/27 00:52:28;;;;;;;;;;;;;;;20.44;35.29;100611.98;106092;1282;61270;-83
2023/01/27 00:54:53;;;;;;;;;;;;;;;20.45;35.26;100600.16;106253;1282;61222;-83
2023/01/27 00:57:19;;;;;;;;;;;;;;;20.44;35.22;100606.61;106127;1282;61143;-82
2023/01/27 00:59:45;;;;;;;;;;;;;;;20.45;35.16;100601.58;106121;1282;74514;-82
2023/01/27 01:02:10;;;;;;;;;;;;;;;20.45;35.19;100585.33;106110;1282;61277;-82
2023/01/27 01:04:36;;;;;;;;;;;;;;;20.45;35.29;100578.91;106272;1282;59956;-82
2023/01/27 01:07:01;;;;;;;;;;;;;;;20.45;35.22;100582.64;106258;1282;61265;-82
2023/01/27 01:09:27;;;;;;;;;;;;;;;20.45;35.27;100576.55;106153;1282;61222;-82
2023/01/27 01:11:54;;;;;;;;;;;;;;;20.45;35.21;100569.58;106287;1282;61271;-82
2023/01/27 01:14:19;;;;;;;;;;;;;;;20.45;35.15;100563.66;106115;1282;61366;-82
2023/01/27 01:16:45;;;;;;;;;;;;;;;20.46;35.23;100549.87;106249;1282;60027;-82
2023/01/27 01:19:10;;;;;;;;;;;;;;;20.46;35.34;100546.06;106072;1284;61317;-82
2023/01/27 01:21:38;;;;;;;;;;;;;;;20.46;35.29;100530.69;106096;1282;61389;-82
2023/01/27 01:24:04;;;;;;;;;;;;;;;20.46;35.17;100526.25;106276;1282;61286;-82
2023/01/27 01:26:30;;;;;;;;;;;;;;;20.46;35.19;100528.01;105489;1282;689482;-82
2023/01/27 01:28:55;;;;;;;;;;;;;;;20.47;35.22;100520.13;106103;1284;61394;-83
2023/01/27 01:31:21;;;;;;;;;;;;;;;20.46;35.13;100518.89;106288;1282;60193;-82
2023/01/27 01:33:46;;;;;;;;;;;;;;;20.47;35.22;100516.02;106142;1282;74474;-82
2023/01/27 01:36:16;;;;;;;;;;;;;;;20.47;35.19;100515.83;106283;1282;61359;-82
2023/01/27 01:38:42;;;;;;;;;;;;;;;20.47;35.27;100509.37;106138;1282;61137;-82
2023/01/27 01:41:09;;;;;;;;;;;;;;;20.47;35.11;100503.12;106120;1282;60176;-82
2023/01/27 01:43:34;;;;;;;;;;;;;;;20.47;35.22;100499.36;106114;1282;61260;-83
2023/01/27 01:46:00;;;;;;;;;;;;;;;20.47;35.08;100500.42;106252;1282;61254;-82
2023/01/27 01:48:26;;;;;;;;;;;;;;;20.48;35.02;100497.71;106248;1282;61318;-83
2023/01/27 01:51:10;;;;;;;;;;;;;;;20.48;35.09;100500.73;106257;1286;61274;-83
2023/01/27 01:53:56;;;;;;;;;;;;;;;20.48;35.15;100503.23;106252;1282;74394;-82
2023/01/27 01:56:22;;;;;;;;;;;;;;;20.47;35.14;100514.35;106254;1282;61158;-83
2023/01/27 01:58:49;;;;;;;;;;;;;;;20.48;35.16;100522.70;106033;1282;61078;-82
2023/01/27 02:01:15;;;;;;;;;;;;;;;20.48;35.17;100514.11;106228;1286;72451;-82
2023/01/27 02:03:41;;;;;;;;;;;;;;;20.49;34.95;100501.75;106237;1282;75276;-82
2023/01/27 02:06:07;;;;;;;;;;;;;;;20.48;35.22;100499.42;106247;1283;59957;-82
2023/01/27 02:08:34;;;;;;;;;;;;;;;20.48;35.06;100496.41;106065;1282;61274;-82
2023/01/27 02:11:00;;;;;;;;;;;;;;;20.49;35.05;100498.70;106218;1287;61430;-82
2023/01/27 02:13:26;;;;;;;;;;;;;;;20.49;34.99;100492.06;106130;1282;61734;-82
2023/01/27 02:15:54;;;;;;;;;;;;;;;20.49;35.07;100496.34;106254;1282;61179;-82
2023/01/27 02:18:19;;;;;;;;;;;;;;;20.49;35.06;100493.12;106270;1282;61259;-83
2023/01/27 02:20:47;;;;;;;;;;;;;;;20.49;35.10;100497.05;106111;1287;60415;-82
2023/01/27 02:23:32;;;;;;;;;;;;;;;20.50;35.04;100500.74;106152;1282;75391;-83
2023/01/27 02:26:08;;;;;;;;;;;;;;;20.50;35.04;100496.45;106104;1282;61117;-83
2023/01/27 02:28:34;;;;;;;;;;;;;;;20.50;35.04;100494.34;106242;1284;61363;-83
2023/01/27 02:30:59;;;;;;;;;;;;;;;20.50;34.94;100496.29;106240;1282;61259;-82
2023/01/27 02:33:25;;;;;;;;;;;;;;;20.50;35.06;100493.08;106007;1282;61355;-83
2023/01/27 02:36:20;;;;;;;;;;;;;;;20.50;35.07;100500.70;106159;1282;61332;-82
2023/01/27 02:38:52;;;;;;;;;;;;;;;20.51;35.04;100484.41;105578;1288;61300;-82
2023/01/27 02:41:23;;;;;;;;;;;;;;;20.51;34.99;100477.79;105581;1288;72643;-83
2023/01/27 02:43:48;;;;;;;;;;;;;;;20.51;34.93;100471.17;105470;1291;75648;-83
2023/01/27 02:46:14;;;;;;;;;;;;;;;20.52;35.01;100463.27;105469;1288;61397;-83
2023/01/27 02:48:40;;;;;;;;;;;;;;;20.52;34.97;100461.66;105449;1288;61358;-83
2023/01/27 02:51:06;;;;;;;;;;;;;;;20.52;34.99;100459.13;105462;1291;61309;-83
2023/01/27 02:53:31;;;;;;;;;;;;;;;20.52;35.03;100451.08;105186;1288;61410;-83
2023/01/27 02:55:57;;;;;;;;;;;;;;;20.52;35.12;100461.60;105599;1288;61384;-83
2023/01/27 02:58:22;;;;;;;;;;;;;;;20.53;35.02;100464.23;105490;1288;60178;-82
2023/01/27 03:00:48;;;;;;;;;;;;;;;20.52;34.99;100459.48;105548;1288;61395;-83
2023/01/27 03:03:13;;;;;;;;;;;;;;;20.53;35.11;100459.77;105537;1288;60133;-83
2023/01/27 03:05:39;;;;;;;;;;;;;;;20.53;34.97;100460.46;105607;1291;61305;-83
2023/01/27 03:08:04;;;;;;;;;;;;;;;20.53;35.04;100461.73;105481;1288;61335;-83
2023/01/27 03:10:30;;;;;;;;;;;;;;;20.53;34.92;100459.25;105403;1288;61427;-83
2023/01/27 03:12:55;;;;;;;;;;;;;;;20.53;34.99;100460.49;105441;1289;61282;-83
2023/01/27 03:18:10;;;;;;;;;;;;;;;20.54;35.04;100464.01;106143;1287;74575;-83
2023/01/27 03:20:37;;;;;;;;;;;;;;;20.54;35.05;100465.23;106114;1282;61184;-83
2023/01/27 03:23:03;;;;;;;;;;;;;;;20.54;35.01;100469.55;106241;1282;61045;-83
2023/01/27 03:25:28;;;;;;;;;;;;;;;20.54;35.11;100469.16;106244;1282;61214;-84
2023/01/27 03:27:54;;;;;;;;;;;;;;;20.54;35.21;100462.54;106023;1282;61329;-83
2023/01/27 03:30:20;;;;;;;;;;;;;;;20.54;34.92;100459.12;106138;1282;61445;-83
2023/01/27 03:32:53;;;;;;;;;;;;;;;20.55;35.02;100452.66;106024;1282;61377;-83
2023/01/27 03:35:19;;;;;;;;;;;;;;;20.55;34.98;100442.98;106297;1282;73543;-83
2023/01/27 03:46:17;;;;;;;;;;;;;;;20.56;34.87;100446.33;106216;1282;73476;-83
2023/01/27 03:48:43;;;;;;;;;;;;;;;20.56;34.99;100443.27;106166;1284;75370;-82
2023/01/27 03:51:09;;;;;;;;;;;;;;;20.56;34.99;100437.70;106251;1286;60148;-83
2023/01/27 03:53:36;;;;;;;;;;;;;;;20.56;34.96;100429.83;106130;1282;61440;-83
2023/01/27 03:56:05;;;;;;;;;;;;;;;20.56;34.81;100419.13;106158;1282;61322;-83
2023/01/27 03:58:34;;;;;;;;;;;;;;;20.57;34.88;100427.11;106111;1282;73400;-83
2023/01/27 04:01:04;;;;;;;;;;;;;;;20.58;34.83;100436.52;106102;1282;61308;-83
2023/01/27 04:09:02;;;;;;;;;;;;;;;20.58;34.96;100427.56;106149;1282;74535;-84
2023/01/27 04:14:14;;;;;;;;;;;;;;;20.58;34.90;100429.48;106244;1282;61212;-83
2023/01/27 04:16:39;;;;;;;;;;;;;;;20.59;34.92;100426.79;106252;1282;73536;-83
2023/01/27 04:19:05;;;;;;;;;;;;;;;20.59;34.89;100419.05;105996;1282;61231;-84
2023/01/27 04:21:31;;;;;;;;;;;;;;;20.59;34.93;100407.42;106135;1287;61362;-83
2023/01/27 04:23:57;;;;;;;;;;;;;;;20.59;34.95;100402.07;106107;1282;61359;-83
2023/01/27 04:26:22;;;;;;;;;;;;;;;20.59;34.96;100402.83;106108;1287;61455;-83
2023/01/27 04:28:48;;;;;;;;;;;;;;;20.60;35.08;100416.35;106164;1282;61285;-83
2023/01/27 04:31:14;;;;;;;;;;;;;;;20.59;34.77;100418.57;106001;1283;75455;-83
2023/01/27 04:33:40;;;;;;;;;;;;;;;20.58;34.84;100418.27;106118;1282;61245;-83
2023/01/27 04:36:06;;;;;;;;;;;;;;;20.58;34.79;100425.41;106134;1282;61317;-83
2023/01/27 04:38:31;;;;;;;;;;;;;;;20.58;34.66;100424.48;106113;1283;61754;-83
2023/01/27 04:40:58;;;;;;;;;;;;;;;20.58;34.52;100422.36;106107;1282;61313;-83
2023/01/27 04:43:23;;;;;;;;;;;;;;;20.58;34.68;100422.73;106125;1282;61171;-84
2023/01/27 04:45:49;;;;;;;;;;;;;;;20.57;34.50;100420.81;106148;1282;61356;-84
2023/01/27 04:48:14;;;;;;;;;;;;;;;20.57;34.48;100424.38;105993;1282;61171;-83
2023/01/27 04:50:40;;;;;;;;;;;;;;;20.58;34.41;100427.95;106120;1282;61401;-84
2023/01/27 04:53:05;;;;;;;;;;;;;;;20.58;34.61;100443.63;106246;1282;61219;-84
2023/01/27 04:55:32;;;;;;;;;;;;;;;20.58;34.41;100458.11;106098;1282;61316;-84
2023/01/27 04:57:58;;;;;;;;;;;;;;;20.59;34.26;100466.12;106087;1282;61349;-84
2023/01/27 05:00:23;;;;;;;;;;;;;;;20.59;34.26;100463.21;106158;1282;61337;-83
2023/01/27 05:02:48;;;;;;;;;;;;;;;20.59;34.25;100466.42;106089;1282;72467;-83
2023/01/27 05:05:14;;;;;;;;;;;;;;;20.59;34.20;100461.63;106011;1289;61411;-83
2023/01/27 05:07:40;;;;;;;;;;;;;;;20.59;34.20;100468.98;106120;1283;61438;-83
2023/01/27 05:10:06;;;;;;;;;;;;;;;20.57;34.09;100471.23;106267;1284;61266;-84
2023/01/27 05:12:32;;;;;;;;;;;;;;;20.55;34.08;100474.46;106103;1287;61266;-83
2023/01/27 05:14:57;;;;;;;;;;;;;;;20.53;33.97;100472.65;106162;1282;61269;-84
2023/01/27 05:17:23;;;;;;;;;;;;;;;20.51;33.89;100469.73;106076;1283;74245;-84
2023/01/27 05:19:48;;;;;;;;;;;;;;;20.50;33.94;100472.33;105990;1282;61365;-84
2023/01/27 05:22:14;;;;;;;;;;;;;;;20.49;33.71;100472.95;106229;1282;61335;-84
2023/01/27 05:24:39;;;;;;;;;;;;;;;20.47;33.68;100474.88;106222;1283;61233;-84
2023/01/27 05:27:05;;;;;;;;;;;;;;;20.46;33.64;100479.79;106128;1282;61276;-83
2023/01/27 05:29:30;;;;;;;;;;;;;;;20.44;33.77;100480.27;106051;1287;75328;-84
2023/01/27 05:31:56;;;;;;;;;;;;;;;20.43;33.59;100481.25;106130;1282;61251;-82
2023/01/27 05:34:22;;;;;;;;;;;;;;;20.41;33.58;100485.81;106112;1282;61277;-83
2023/01/27 05:36:47;;;;;;;;;;;;;;;20.39;33.59;100492.57;106162;1282;61344;-83
2023/01/27 05:39:13;;;;;;;;;;;;;;;20.37;33.58;100493.80;106135;1287;61141;-84
2023/01/27 05:41:38;;;;;;;;;;;;;;;20.36;33.52;100483.76;106162;1282;61254;-83
2023/01/27 05:44:04;;;;;;;;;;;;;;;20.34;33.57;100490.46;106174;1285;60076;-85
2023/01/27 05:46:30;;;;;;;;;;;;;;;20.33;33.44;100499.84;106225;1283;61343;-84
2023/01/27 05:49:01;;;;;;;;;;;;;;;20.24;33.47;100495.48;106306;1282;61295;-85
2023/01/27 05:51:28;;;;;;;;;;;;;;;20.09;33.38;100488.70;106087;1284;74690;-84
2023/01/27 05:53:54;;;;;;;;;;;;;;;19.88;33.52;100489.48;106206;1282;60058;-84
2023/01/27 05:56:20;;;;;;;;;;;;;;;19.73;33.45;100482.48;106074;1287;60227;-84
2023/01/27 05:58:45;;;;;;;;;;;;;;;19.48;33.39;100482.04;106223;1282;61294;-84
2023/01/27 06:01:12;;;;;;;;;;;;;;;19.35;33.43;100480.64;106253;1287;61275;-86
2023/01/27 06:03:38;;;;;;;;;;;;;;;19.11;33.21;100479.60;106323;1282;61244;-84
2023/01/27 06:06:03;;;;;;;;;;;;;;;18.96;33.46;100476.48;106295;1283;61160;-85
2023/01/27 06:08:29;;;;;;;;;;;;;;;18.91;33.52;100473.77;106179;1282;59491;-83
2023/01/27 06:10:56;;;;;;;;;;;;;;;18.97;33.81;100477.69;106091;1285;74463;-83
2023/01/27 06:13:22;;;;;;;;;;;;;;;19.00;33.66;100466.77;106040;1283;74402;-83
2023/01/27 06:15:48;;;;;;;;;;;;;;;19.08;33.73;100464.80;106054;1282;61283;-83
2023/01/27 06:18:37;;;;;;;;;;;;;;;19.19;33.84;100467.95;105981;1284;59751;-84
2023/01/27 06:21:02;;;;;;;;;;;;;;;19.34;33.99;100469.51;105568;1290;73736;-83
2023/01/27 06:23:30;;;;;;;;;;;;;;;19.44;34.18;100474.27;105435;1288;60094;-83
2023/01/27 06:25:55;;;;;;;;;;;;;;;19.57;34.31;100474.80;105575;1287;61097;-83
2023/01/27 06:28:21;;;;;;;;;;;;;;;19.68;34.23;100468.34;105437;1288;61396;-83
2023/01/27 06:30:46;;;;;;;;;;;;;;;19.78;34.42;100469.78;105398;1292;59073;-83
2023/01/27 06:33:12;;;;;;;;;;;;;;;19.87;34.50;100473.62;105438;1290;61262;-84
2023/01/27 06:35:38;;;;;;;;;;;;;;;19.96;34.35;100468.91;105560;1289;61042;-83
2023/01/27 06:38:04;;;;;;;;;;;;;;;20.03;34.41;100471.25;105899;1291;59984;-84
2023/01/27 06:40:30;;;;;;;;;;;;;;;20.10;34.33;100477.91;105329;1293;61186;-83
2023/01/27 06:42:55;;;;;;;;;;;;;;;20.16;34.38;100481.40;105559;1288;61258;-84
2023/01/27 06:45:21;;;;;;;;;;;;;;;20.21;34.23;100482.98;105535;1291;60832;-83
2023/01/27 06:48:13;;;;;;;;;;;;;;;20.27;34.26;100477.73;105581;1291;59392;-84
2023/01/27 06:50:39;;;;;;;;;;;;;;;20.33;34.30;100465.52;105064;1294;60014;-84
2023/01/27 06:53:04;;;;;;;;;;;;;;;20.37;34.37;100466.52;105073;1298;60811;-84
2023/01/27 06:55:32;;;;;;;;;;;;;;;20.38;34.24;100468.33;104978;1293;61354;-83
2023/01/27 06:57:57;;;;;;;;;;;;;;;20.39;34.49;100468.27;105238;1290;61284;-83
2023/01/27 07:00:23;;;;;;;;;;;;;;;20.40;34.59;100473.41;105316;1290;59747;-84
2023/01/27 07:02:50;;;;;;;;;;;;;;;20.40;34.65;100475.38;105353;1289;61371;-84
2023/01/27 07:05:15;;;;;;;;;;;;;;;20.42;34.52;100475.05;105453;1289;60094;-84
2023/01/27 07:07:41;;;;;;;;;;;;;;;20.43;34.47;100466.91;105499;1291;59112;-83
2023/01/27 07:10:06;;;;;;;;;;;;;;;20.46;34.61;100463.31;105391;1289;61212;-83
2023/01/27 07:12:36;;;;;;;;;;;;;;;20.49;34.55;100466.52;105584;1290;61229;-82
2023/01/27 07:15:05;;;;;;;;;;;;;;;20.51;34.67;100454.59;105794;1290;72518;-83
2023/01/27 07:17:30;;;;;;;;;;;;;;;20.53;34.45;100452.04;105571;1289;74335;-83
2023/01/27 07:19:56;;;;;;;;;;;;;;;20.56;34.38;100448.59;105616;1288;61229;-82
2023/01/27 07:22:21;;;;;;;;;;;;;;;20.60;34.41;100436.50;105561;1289;59941;-82
2023/01/27 07:24:47;;;;;;;;;;;;;;;20.63;34.42;100434.52;105610;1291;61370;-82
2023/01/27 07:27:13;;;;;;;;;;;;;;;20.66;34.44;100421.60;105790;1282;60613;-82
2023/01/27 07:29:38;;;;;;;;;;;;;;;20.69;34.17;100421.41;106229;1283;74317;-82
2023/01/27 07:32:04;;;;;;;;;;;;;;;20.71;34.39;100413.55;106288;1283;61689;-82
2023/01/27 07:34:30;;;;;;;;;;;;;;;20.74;34.31;100416.04;106229;1282;61266;-82
2023/01/27 07:36:56;;;;;;;;;;;;;;;20.75;34.26;100421.99;106416;1284;60440;-82
2023/01/27 07:39:22;;;;;;;;;;;;;;;20.78;34.19;100418.77;106294;1283;60070;-82
2023/01/27 07:41:48;;;;;;;;;;;;;;;20.79;34.15;100418.84;106283;1283;61072;-83
2023/01/27 07:44:13;;;;;;;;;;;;;;;20.82;34.10;100426.00;106382;1284;59559;-83
2023/01/27 07:46:39;;;;;;;;;;;;;;;20.82;34.15;100428.45;106401;1283;60010;-83
2023/01/27 07:49:04;;;;;;;;;;;;;;;20.83;34.18;100428.39;106391;1282;61336;-83
2023/01/27 07:51:31;;;;;;;;;;;;;;;20.84;34.24;100427.08;106082;1282;61291;-83
2023/01/27 07:53:56;;;;;;;;;;;;;;;20.86;34.07;100421.73;106309;1283;61267;-84
2023/01/27 07:56:22;;;;;;;;;;;;;;;20.86;34.22;100423.70;106351;1283;61084;-83
2023/01/27 07:58:47;;;;;;;;;;;;;;;20.85;34.12;100423.25;106422;1283;61122;-84
2023/01/27 08:01:13;;;;;;;;;;;;;;;20.84;34.29;100419.90;106183;1284;71358;-84
2023/01/27 08:03:38;;;;;;;;;;;;;;;20.84;34.17;100420.10;106300;1283;61215;-84
2023/01/27 08:06:06;;;;;;;;;;;;;;;20.82;34.30;100415.80;106149;1282;59607;-84
2023/01/27 08:08:31;;;;;;;;;;;;;;;20.81;34.27;100417.13;106254;1283;59382;-84
2023/01/27 08:11:01;;;;;;;;;;;;;;;20.80;34.39;100413.06;106244;1282;59902;-83
2023/01/27 08:13:26;;;;;;;;;;;;;;;20.78;34.27;100418.95;106210;1287;73393;-83
2023/01/27 08:15:56;;;;;;;;;;;;;;;20.76;34.21;100420.36;106236;1282;59553;-83
2023/01/27 08:18:22;;;;;;;;;;;;;;;20.75;34.31;100412.15;106342;1282;60154;-83
2023/01/27 08:20:47;;;;;;;;;;;;;;;20.76;34.17;100415.35;106392;1282;61091;-83
2023/01/27 08:23:13;;;;;;;;;;;;;;;20.77;34.22;100418.46;106459;1283;59964;-83
2023/01/27 08:25:38;;;;;;;;;;;;;;;20.78;34.28;100418.94;106168;1283;60062;-83
2023/01/27 08:28:04;;;;;;;;;;;;;;;20.79;34.14;100410.83;106456;1282;59929;-83
2023/01/27 08:30:29;;;;;;;;;;;;;;;20.80;34.19;100412.02;106246;1285;62963;-83
2023/01/27 08:32:55;;;;;;;;;;;;;;;20.81;34.08;100411.76;106344;1282;61375;-83
2023/01/27 08:35:20;;;;;;;;;;;;;;;20.83;34.21;100408.39;106419;1282;61216;-83
2023/01/27 08:37:47;;;;;;;;;;;;;;;20.83;34.19;100409.98;106218;1282;60074;-83
2023/01/27 08:40:16;;;;;;;;;;;;;;;20.84;34.30;100412.59;106129;1285;61354;-83
2023/01/27 08:42:41;;;;;;;;;;;;;;;20.85;34.22;100406.78;105972;1286;59324;-83
2023/01/27 08:45:08;;;;;;;;;;;;;;;20.86;34.17;100403.70;106067;1285;59631;-83
2023/01/27 08:47:33;;;;;;;;;;;;;;;20.87;34.23;100409.34;105955;1285;61204;-83
2023/01/27 08:49:59;;;;;;;;;;;;;;;20.88;34.23;100399.05;106085;1285;62776;-83
2023/01/27 08:52:26;;;;;;;;;;;;;;;20.88;34.12;100393.21;105895;1285;60026;-83
2023/01/27 08:54:52;;;;;;;;;;;;;;;20.89;34.20;100399.20;105998;1290;60239;-83
2023/01/27 08:57:17;;;;;;;;;;;;;;;20.90;34.03;100396.45;105883;1285;59691;-83
2023/01/27 08:59:44;;;;;;;;;;;;;;;20.90;34.21;100390.29;105959;1285;61311;-84
2023/01/27 09:02:11;;;;;;;;;;;;;;;20.90;34.01;100384.55;105885;1286;59407;-85
2023/01/27 09:04:40;;;;;;;;;;;;;;;20.91;33.99;100377.20;106059;1284;73002;-85
2023/01/27 09:07:06;;;;;;;;;;;;;;;20.89;34.18;100371.83;106150;1284;75907;-85
2023/01/27 09:09:32;;;;;;;;;;;;;;;20.86;34.26;100361.48;105964;1285;59461;-84
2023/01/27 09:12:00;;;;;;;;;;;;;;;20.83;34.31;100358.86;106006;1284;61294;-83
2023/01/27 09:14:26;;;;;;;;;;;;;;;20.83;34.39;100353.10;105825;1285;73279;-83
2023/01/27 09:16:52;;;;;;;;;;;;;;;20.85;34.42;100344.23;105942;1284;61290;-83
2023/01/27 09:19:17;;;;;;;;;;;;;;;20.86;34.53;100354.48;106075;1283;60319;-84
2023/01/27 09:21:43;;;;;;;;;;;;;;;20.88;34.58;100362.36;106308;1282;60086;-84
2023/01/27 09:24:10;;;;;;;;;;;;;;;20.90;34.39;100356.20;106207;1283;59448;-83
2023/01/27 09:26:35;;;;;;;;;;;;;;;20.91;34.46;100355.34;106381;1282;59269;-84
2023/01/27 09:29:00;;;;;;;;;;;;;;;20.92;34.48;100348.68;106351;1282;59455;-83
2023/01/27 09:31:26;;;;;;;;;;;;;;;20.92;34.46;100347.73;106320;1283;60141;-82
2023/01/27 09:33:51;;;;;;;;;;;;;;;20.93;34.47;100352.50;106340;1282;60088;-82
2023/01/27 09:36:18;;;;;;;;;;;;;;;20.95;34.47;100346.50;106363;1282;59702;-83
2023/01/27 09:38:45;;;;;;;;;;;;;;;20.96;34.47;100340.33;106150;1282;61145;-83
2023/01/27 09:41:36;;;;;;;;;;;;;;;20.96;34.55;100335.52;106342;1282;59852;-82
2023/01/27 09:44:07;;;;;;;;;;;;;;;20.97;34.46;100325.98;106906;1282;60305;-83
2023/01/27 09:46:44;;;;;;;;;;;;;;;20.97;34.38;100314.15;106947;1283;74197;-82
2023/01/27 09:49:16;;;;;;;;;;;;;;;20.98;34.59;100314.58;106921;1282;74448;-84
2023/01/27 09:52:02;;;;;;;;;;;;;;;20.98;34.50;100306.15;106205;1283;61511;-83
2023/01/27 09:54:43;;;;;;;;;;;;;;;20.98;34.49;100307.43;106506;1286;61322;-84
2023/01/27 09:57:12;;;;;;;;;;;;;;;20.98;34.43;100295.77;106344;1283;72766;-83
2023/01/27 09:59:50;;;;;;;;;;;;;;;20.98;34.37;100300.64;106245;1283;74698;-84
2023/01/27 10:02:20;;;;;;;;;;;;;;;20.89;34.21;100294.53;106295;1282;61606;-85
2023/01/27 10:04:45;;;;;;;;;;;;;;;20.72;34.20;100288.70;106314;1282;61829;-84
2023/01/27 10:07:14;;;;;;;;;;;;;;;20.43;33.81;100285.30;106126;1283;60124;-85
2023/01/27 10:09:51;;;;;;;;;;;;;;;20.17;34.00;100287.12;106184;1285;74580;-83
2023/01/27 10:12:21;;;;;;;;;;;;;;;19.91;34.14;100279.44;106200;1282;60453;-85
2023/01/27 10:14:49;;;;;;;;;;;;;;;19.79;34.28;100276.54;106294;1282;61216;-84
2023/01/27 10:17:23;;;;;;;;;;;;;;;19.81;34.46;100269.40;106274;1283;73777;-83
2023/01/27 10:19:49;;;;;;;;;;;;;;;19.89;34.52;100265.10;106376;1282;75386;-84
2023/01/27 10:22:15;;;;;;;;;;;;;;;19.98;34.59;100261.02;106344;1282;61036;-83
2023/01/27 10:24:52;;;;;;;;;;;;;;;20.06;34.54;100254.52;106342;1282;60105;-84
2023/01/27 10:27:20;;;;;;;;;;;;;;;20.15;34.55;100255.27;106329;1282;72720;-83
2023/01/27 10:29:48;;;;;;;;;;;;;;;20.24;34.51;100251.23;106254;1282;74532;-83
2023/01/27 10:32:27;;;;;;;;;;;;;;;20.30;34.46;100246.67;106303;1283;61724;-83
2023/01/27 10:35:14;;;;;;;;;;;;;;;20.38;34.50;100246.04;106303;1282;61170;-83
2023/01/27 10:37:42;;;;;;;;;;;;;;;20.45;34.43;100246.96;106134;1282;72610;-83
2023/01/27 10:40:15;;;;;;;;;;;;;;;20.51;34.32;100239.52;106242;1282;75369;-84
2023/01/27 10:42:46;;;;;;;;;;;;;;;20.55;34.39;100224.38;106287;1283;61181;-83
2023/01/27 10:45:12;;;;;;;;;;;;;;;20.59;34.25;100207.61;106242;1282;61148;-84
2023/01/27 10:47:57;;;;;;;;;;;;;;;20.62;34.41;100198.81;106349;1282;61212;-83
2023/01/27 10:50:26;;;;;;;;;;;;;;;20.66;34.35;100187.04;106329;1283;74447;-84
2023/01/27 10:52:51;;;;;;;;;;;;;;;20.70;34.32;100182.07;106261;1282;61125;-85
2023/01/27 10:55:21;;;;;;;;;;;;;;;20.71;34.16;100185.20;106307;1282;61323;-84
2023/01/27 10:57:52;;;;;;;;;;;;;;;20.73;34.20;100190.43;106355;1282;73663;-85
2023/01/27 11:00:21;;;;;;;;;;;;;;;20.76;34.11;100176.98;106378;1282;75450;-85
2023/01/27 11:02:56;;;;;;;;;;;;;;;20.77;34.17;100177.95;106294;1282;59989;-84
2023/01/27 11:05:23;;;;;;;;;;;;;;;20.56;33.79;100176.88;106268;1283;60145;-85
2023/01/27 11:07:55;;;;;;;;;;;;;;;20.11;33.81;100172.14;106757;1282;71692;-82
2023/01/27 11:10:21;;;;;;;;;;;;;;;20.06;34.09;100175.39;106695;1282;75475;-83
2023/01/27 11:12:47;;;;;;;;;;;;;;;20.03;34.13;100173.84;106665;1282;59239;-83
2023/01/27 11:15:16;;;;;;;;;;;;;;;19.95;34.29;100173.05;106715;1282;59458;-82
2023/01/27 11:17:50;;;;;;;;;;;;;;;19.98;34.30;100164.81;106506;1281;72602;-84
2023/01/27 11:20:28;;;;;;;;;;;;;;;20.06;34.34;100164.71;106574;1282;73345;-84
2023/01/27 11:22:54;;;;;;;;;;;;;;;20.13;34.36;100161.46;106432;1282;62189;-83
2023/01/27 11:25:46;;;;;;;;;;;;;;;20.19;34.29;100153.17;106396;1283;62444;-83
2023/01/27 11:28:18;;;;;;;;;;;;;;;20.28;34.32;100155.15;106349;1282;72593;-82
2023/01/27 11:31:03;;;;;;;;;;;;;;;20.36;34.19;100153.45;106424;1282;74456;-83
2023/01/27 11:33:43;;;;;;;;;;;;;;;20.42;34.12;100156.70;106315;1282;61210;-83
2023/01/27 11:36:09;;;;;;;;;;;;;;;20.50;34.07;100160.74;106244;1283;61586;-84
2023/01/27 11:38:34;;;;;;;;;;;;;;;20.57;34.03;100163.25;106259;1282;60212;-84
2023/01/27 11:41:00;;;;;;;;;;;;;;;20.59;33.82;100161.10;106099;1282;61873;-82
2023/01/27 11:43:25;;;;;;;;;;;;;;;20.60;33.92;100151.77;106209;1282;61298;-83
2023/01/27 11:45:51;;;;;;;;;;;;;;;20.64;33.75;100153.79;106161;1282;61323;-83
2023/01/27 11:48:18;;;;;;;;;;;;;;;20.67;33.80;100147.27;106184;1282;62326;-83
2023/01/27 11:50:44;;;;;;;;;;;;;;;20.68;33.80;100153.04;106169;1283;73539;-83
2023/01/27 11:53:11;;;;;;;;;;;;;;;20.71;33.99;100151.25;106149;1282;60147;-84
2023/01/27 11:55:59;;;;;;;;;;;;;;;20.74;33.87;100157.13;106699;1282;59343;-83
2023/01/27 11:58:26;;;;;;;;;;;;;;;20.68;33.77;100162.55;106417;1287;61202;-84
2023/01/27 12:01:02;;;;;;;;;;;;;;;20.49;33.52;100152.64;106469;1282;72277;-84
2023/01/27 12:03:47;;;;;;;;;;;;;;;20.26;33.51;100139.38;106274;1282;74298;-83
2023/01/27 12:06:14;;;;;;;;;;;;;;;20.14;33.51;100146.41;106326;1282;60040;-83
2023/01/27 12:08:40;;;;;;;;;;;;;;;20.11;33.61;100135.35;106191;1286;61323;-83
2023/01/27 12:11:18;;;;;;;;;;;;;;;20.10;33.42;100142.56;106282;1281;61031;-84
2023/01/27 12:13:47;;;;;;;;;;;;;;;20.04;33.65;100136.23;106133;1287;75558;-83
2023/01/27 12:16:13;;;;;;;;;;;;;;;20.05;33.42;100140.44;106167;1282;61137;-82
2023/01/27 12:18:45;;;;;;;;;;;;;;;20.09;33.70;100139.59;106263;1283;61272;-83
2023/01/27 12:21:11;;;;;;;;;;;;;;;20.16;33.46;100143.23;106295;1282;72626;-83
2023/01/27 12:23:37;;;;;;;;;;;;;;;20.21;33.48;100139.92;106222;1282;61305;-82
2023/01/27 12:26:11;;;;;;;;;;;;;;;20.26;33.54;100144.04;106394;1282;61356;-82
2023/01/27 12:28:39;;;;;;;;;;;;;;;20.31;33.53;100146.02;106357;1282;61239;-84
2023/01/27 12:31:09;;;;;;;;;;;;;;;20.31;33.42;100138.48;106174;1283;73944;-83
2023/01/27 12:33:35;;;;;;;;;;;;;;;20.30;33.36;100142.46;106230;1282;75323;-83
2023/01/27 12:36:03;;;;;;;;;;;;;;;20.28;33.31;100146.38;106343;1282;59391;-84
2023/01/27 12:38:30;;;;;;;;;;;;;;;20.17;33.05;100156.02;106356;1281;61415;-83
2023/01/27 12:40:57;;;;;;;;;;;;;;;20.07;33.23;100153.94;106230;1282;74010;-83
2023/01/27 12:43:23;;;;;;;;;;;;;;;20.03;33.29;100152.44;106239;1282;74282;-83
2023/01/27 12:46:08;;;;;;;;;;;;;;;20.04;33.21;100150.35;106200;1282;61066;-83
2023/01/27 12:48:35;;;;;;;;;;;;;;;20.06;33.37;100156.28;106192;1282;61223;-82
2023/01/27 12:51:23;;;;;;;;;;;;;;;20.08;33.20;100158.66;106225;1282;61198;-83
2023/01/27 12:53:49;;;;;;;;;;;;;;;20.10;33.26;100159.95;105669;1287;74470;-83
2023/01/27 12:56:19;;;;;;;;;;;;;;;20.00;33.19;100158.39;105782;1288;59515;-83
2023/01/27 12:58:45;;;;;;;;;;;;;;;19.90;33.27;100152.14;105553;1288;60548;-84